createdAt,value
2023-05-21T00:00:44.105Z,53.83
2023-05-21T00:03:16.487Z,53.90
2023-05-21T00:05:50.899Z,53.76
2023-05-21T00:08:24.029Z,53.93
2023-05-21T00:10:56.511Z,54.09
2023-05-21T00:13:28.668Z,53.63
2023-05-21T00:16:02.210Z,54.43
2023-05-21T00:18:34.444Z,54.18
2023-05-21T00:21:06.951Z,54.16
2023-05-21T00:23:41.279Z,54.05
2023-05-21T00:26:14.896Z,54.33
2023-05-21T00:28:48.144Z,54.13
2023-05-21T00:31:20.859Z,53.90
2023-05-21T00:33:53.016Z,54.28
2023-05-21T00:36:25.440Z,54.49
2023-05-21T00:38:57.606Z,54.52
2023-05-21T00:41:31.325Z,54.45
2023-05-21T00:44:03.447Z,54.16
2023-05-21T00:46:36.491Z,54.34
2023-05-21T00:49:09.357Z,54.17
2023-05-21T00:51:41.882Z,54.35
2023-05-21T00:54:14.449Z,54.00
2023-05-21T00:56:47.596Z,54.44
2023-05-21T00:59:19.788Z,53.98
2023-05-21T01:01:56.458Z,54.02
2023-05-21T01:04:28.965Z,54.17
2023-05-21T01:07:02.287Z,54.60
2023-05-21T01:09:36.547Z,54.56
2023-05-21T01:12:09.472Z,54.44
2023-05-21T01:14:41.934Z,54.59
2023-05-21T01:17:14.886Z,54.59
2023-05-21T01:19:47.561Z,54.85
2023-05-21T01:22:21.284Z,54.70
2023-05-21T01:24:55.459Z,54.42
2023-05-21T01:27:27.728Z,54.84
2023-05-21T01:29:59.918Z,54.75
2023-05-21T01:32:38.834Z,54.34
2023-05-21T01:35:13.286Z,54.44
2023-05-21T01:38:04.489Z,54.62
2023-05-21T01:40:53.430Z,54.45
2023-05-21T01:43:27.980Z,54.58
2023-05-21T01:46:01.093Z,54.69
2023-05-21T01:48:34.941Z,54.72
2023-05-21T01:51:07.291Z,55.03
2023-05-21T01:53:40.796Z,54.87
2023-05-21T01:56:13.097Z,54.28
2023-05-21T01:58:45.369Z,55.12
2023-05-21T02:01:17.515Z,55.04
2023-05-21T02:03:49.755Z,54.23
2023-05-21T02:06:22.714Z,55.11
2023-05-21T02:08:55.712Z,54.36
2023-05-21T02:11:28.357Z,54.93
2023-05-21T02:14:02.006Z,54.79
2023-05-21T02:16:35.199Z,54.87
2023-05-21T02:19:10.675Z,54.80
2023-05-21T02:21:42.931Z,54.48
2023-05-21T02:24:15.245Z,54.46
2023-05-21T02:26:50.492Z,54.78
2023-05-21T02:29:22.671Z,54.71
2023-05-21T02:31:54.824Z,54.58
2023-05-21T02:34:27.322Z,54.54
2023-05-21T02:36:59.562Z,54.66
2023-05-21T02:39:32.756Z,55.21
2023-05-21T02:42:05.107Z,55.31
2023-05-21T02:44:37.349Z,55.28
2023-05-21T02:47:10.438Z,54.57
2023-05-21T02:49:42.729Z,55.16
2023-05-21T02:52:14.988Z,55.01
2023-05-21T02:54:47.355Z,55.33
2023-05-21T02:57:19.647Z,55.33
2023-05-21T02:59:52.324Z,55.00
2023-05-21T03:02:27.895Z,55.44
2023-05-21T03:05:01.245Z,54.66
2023-05-21T03:07:33.509Z,55.12
2023-05-21T03:10:06.188Z,54.67
2023-05-21T03:12:38.404Z,54.96
2023-05-21T03:15:10.996Z,55.16
2023-05-21T03:17:44.601Z,54.67
2023-05-21T03:20:19.032Z,55.24
2023-05-21T03:22:51.239Z,54.73
2023-05-21T03:25:25.270Z,54.71
2023-05-21T03:27:59.361Z,54.80
2023-05-21T03:30:51.104Z,55.27
2023-05-21T03:33:35.256Z,54.80
2023-05-21T03:36:17.890Z,54.77
2023-05-21T03:38:50.062Z,55.16
2023-05-21T03:41:22.419Z,55.56
2023-05-21T03:44:00.013Z,55.24
2023-05-21T03:46:37.281Z,55.37
2023-05-21T03:49:26.225Z,55.07
2023-05-21T03:52:01.165Z,54.91
2023-05-21T03:54:33.569Z,55.01
2023-05-21T03:57:10.057Z,55.29
2023-05-21T03:59:42.318Z,55.13
2023-05-21T04:02:14.474Z,54.72
2023-05-21T04:04:47.842Z,55.00
2023-05-21T04:07:20.374Z,55.61
2023-05-21T04:09:52.808Z,55.30
2023-05-21T04:12:24.960Z,54.93
2023-05-21T04:14:58.794Z,55.64
2023-05-21T04:17:31.282Z,55.01
2023-05-21T04:20:04.449Z,55.16
2023-05-21T04:22:37.343Z,55.41
2023-05-21T04:25:09.717Z,55.48
2023-05-21T04:27:47.836Z,55.00
2023-05-21T04:30:20.467Z,55.66
2023-05-21T04:32:52.911Z,55.58
2023-05-21T04:35:26.164Z,55.26
2023-05-21T04:37:59.120Z,55.26
2023-05-21T04:40:31.808Z,55.80
2023-05-21T04:43:04.859Z,55.37
2023-05-21T04:45:37.195Z,55.42
2023-05-21T04:48:09.680Z,55.59
2023-05-21T04:50:41.896Z,55.59
2023-05-21T04:53:14.054Z,55.32
2023-05-21T04:55:47.127Z,56.04
2023-05-21T04:58:19.722Z,55.29
2023-05-21T05:00:53.672Z,55.21
2023-05-21T05:03:25.896Z,55.71
2023-05-21T05:05:58.086Z,56.13
2023-05-21T05:08:30.887Z,55.68
2023-05-21T05:11:03.435Z,55.70
2023-05-21T05:13:35.801Z,55.50
2023-05-21T05:16:10.368Z,55.22
2023-05-21T05:18:42.981Z,55.24
2023-05-21T05:21:18.539Z,55.52
2023-05-21T05:23:50.720Z,55.67
2023-05-21T05:26:25.639Z,55.37
2023-05-21T05:28:57.980Z,55.29
2023-05-21T05:31:30.560Z,55.77
2023-05-21T05:34:02.785Z,56.23
2023-05-21T05:36:36.402Z,55.94
2023-05-21T05:39:08.951Z,56.35
2023-05-21T05:41:41.277Z,55.53
2023-05-21T05:44:13.750Z,56.14
2023-05-21T05:46:45.948Z,55.77
2023-05-21T05:49:18.263Z,55.77
2023-05-21T05:51:50.655Z,55.74
2023-05-21T05:54:23.249Z,55.86
2023-05-21T05:56:55.619Z,56.25
2023-05-21T05:59:28.281Z,55.75
2023-05-21T06:02:04.707Z,55.77
2023-05-21T06:04:37.983Z,55.36
2023-05-21T06:07:10.318Z,55.42
2023-05-21T06:09:42.456Z,55.37
2023-05-21T06:12:16.085Z,55.77
2023-05-21T06:14:49.126Z,55.37
2023-05-21T06:17:21.514Z,55.48
2023-05-21T06:19:54.060Z,56.00
2023-05-21T06:22:26.745Z,55.86
2023-05-21T06:24:58.858Z,55.90
2023-05-21T06:27:32.187Z,56.16
2023-05-21T06:30:06.504Z,56.39
2023-05-21T06:32:39.956Z,55.66
2023-05-21T06:35:12.258Z,55.89
2023-05-21T06:37:44.563Z,56.16
2023-05-21T06:40:17.292Z,56.09
2023-05-21T06:42:51.132Z,55.86
2023-05-21T06:45:43.654Z,55.85
2023-05-21T06:48:44.163Z,55.87
2023-05-21T06:51:16.328Z,56.13
2023-05-21T06:53:48.809Z,55.89
2023-05-21T06:56:22.595Z,55.87
2023-05-21T06:58:59.472Z,55.86
2023-05-21T07:01:34.476Z,56.25
2023-05-21T07:04:07.288Z,55.96
2023-05-21T07:06:39.540Z,55.27
2023-05-21T07:09:12.037Z,55.74
2023-05-21T07:11:44.457Z,55.86
2023-05-21T07:14:18.176Z,56.36
2023-05-21T07:16:50.487Z,55.44
2023-05-21T07:19:22.893Z,55.45
2023-05-21T07:21:56.650Z,55.79
2023-05-21T07:24:28.979Z,55.83
2023-05-21T07:27:04.639Z,56.44
2023-05-21T07:29:41.129Z,55.79
2023-05-21T07:32:13.889Z,55.53
2023-05-21T07:34:46.007Z,55.67
2023-05-21T07:37:18.999Z,55.41
2023-05-21T07:39:52.167Z,55.69
2023-05-21T07:42:25.405Z,55.92
2023-05-21T07:45:01.242Z,55.55
2023-05-21T07:47:35.039Z,55.67
2023-05-21T07:50:08.009Z,56.06
2023-05-21T07:52:40.844Z,55.54
2023-05-21T07:55:13.633Z,55.96
2023-05-21T07:57:46.619Z,56.09
2023-05-21T08:00:23.531Z,55.54
2023-05-21T08:03:01.306Z,55.95
2023-05-21T08:05:33.853Z,56.50
2023-05-21T08:08:06.733Z,55.89
2023-05-21T08:10:39.996Z,55.58
2023-05-21T08:13:13.242Z,55.96
2023-05-21T08:15:46.102Z,55.69
2023-05-21T08:18:23.847Z,56.08
2023-05-21T08:20:58.917Z,55.99
2023-05-21T08:23:31.828Z,55.93
2023-05-21T08:26:05.346Z,56.29
2023-05-21T08:28:40.301Z,56.04
2023-05-21T08:31:12.610Z,55.44
2023-05-21T08:33:52.252Z,55.60
2023-05-21T08:36:28.406Z,56.01
2023-05-21T08:39:06.660Z,56.21
2023-05-21T08:41:46.591Z,55.46
2023-05-21T08:44:21.091Z,55.23
2023-05-21T08:46:54.976Z,55.94
2023-05-21T08:49:31.070Z,55.26
2023-05-21T08:52:03.752Z,55.81
2023-05-21T08:54:37.087Z,55.57
2023-05-21T08:57:09.982Z,55.21
2023-05-21T08:59:44.540Z,55.86
2023-05-21T09:02:26.030Z,55.72
2023-05-21T09:04:59.125Z,55.57
2023-05-21T09:07:31.843Z,56.09
2023-05-21T09:10:18.462Z,55.87
2023-05-21T09:12:51.073Z,55.28
2023-05-21T09:15:24.586Z,56.13
2023-05-21T09:17:57.681Z,55.58
2023-05-21T09:21:01.523Z,55.34
2023-05-21T09:23:33.807Z,55.29
2023-05-21T09:26:10.958Z,55.42
2023-05-21T09:28:43.543Z,56.00
2023-05-21T09:31:21.888Z,55.39
2023-05-21T09:33:55.778Z,55.31
2023-05-21T09:36:29.985Z,55.31
2023-05-21T09:39:02.604Z,55.69
2023-05-21T09:41:36.885Z,55.66
2023-05-21T09:44:10.809Z,55.47
2023-05-21T09:46:43.190Z,55.26
2023-05-21T09:49:34.355Z,55.22
2023-05-21T09:52:07.349Z,55.43
2023-05-21T09:54:40.101Z,55.32
2023-05-21T09:57:14.368Z,55.66
2023-05-21T09:59:50.394Z,55.34
2023-05-21T10:02:23.370Z,55.82
2023-05-21T10:04:57.149Z,55.42
2023-05-21T10:07:29.768Z,55.86
2023-05-21T10:10:03.639Z,55.13
2023-05-21T10:12:36.309Z,55.55
2023-05-21T10:15:09.521Z,55.07
2023-05-21T10:17:42.828Z,55.04
2023-05-21T10:20:15.412Z,55.41
2023-05-21T10:22:47.942Z,55.36
2023-05-21T10:25:20.561Z,55.66
2023-05-21T10:27:55.478Z,55.37
2023-05-21T10:30:27.806Z,54.92
2023-05-21T10:33:01.950Z,54.99
2023-05-21T10:35:34.532Z,54.88
2023-05-21T10:38:08.311Z,55.51
2023-05-21T10:40:40.544Z,55.00
2023-05-21T10:43:31.259Z,54.87
2023-05-21T10:46:14.933Z,55.25
2023-05-21T10:48:53.176Z,54.67
2023-05-21T10:51:29.496Z,55.11
2023-05-21T10:54:01.858Z,55.12
2023-05-21T10:56:37.440Z,55.46
2023-05-21T10:59:24.892Z,54.70
2023-05-21T11:01:58.744Z,55.37
2023-05-21T11:04:31.246Z,54.56
2023-05-21T11:07:03.428Z,55.06
2023-05-21T11:09:36.007Z,54.61
2023-05-21T11:12:10.630Z,54.95
2023-05-21T11:14:56.835Z,55.13
2023-05-21T11:17:42.196Z,54.83
2023-05-21T11:20:14.486Z,54.97
2023-05-21T11:22:47.786Z,54.57
2023-05-21T11:25:23.505Z,54.70
2023-05-21T11:28:04.223Z,54.66
2023-05-21T11:30:37.324Z,54.50
2023-05-21T11:33:15.951Z,54.69
2023-05-21T11:35:48.254Z,54.77
2023-05-21T11:38:21.033Z,54.09
2023-05-21T11:40:55.895Z,54.57
2023-05-21T11:43:28.749Z,54.77
2023-05-21T11:46:03.429Z,54.46
2023-05-21T11:48:36.760Z,53.99
2023-05-21T11:51:09.042Z,54.42
2023-05-21T11:53:48.990Z,54.02
2023-05-21T11:56:21.144Z,54.10
2023-05-21T11:58:56.388Z,54.59
2023-05-21T12:01:28.455Z,54.14
2023-05-21T12:04:03.560Z,54.10
2023-05-21T12:06:35.736Z,54.62
2023-05-21T12:09:10.227Z,54.01
2023-05-21T12:11:43.203Z,54.37
2023-05-21T12:14:15.534Z,54.30
2023-05-21T12:16:47.784Z,54.48
2023-05-21T12:19:20.014Z,54.59
2023-05-21T12:21:52.182Z,54.57
2023-05-21T12:24:24.979Z,54.41
2023-05-21T12:27:01.901Z,54.58
2023-05-21T12:29:35.721Z,54.36
2023-05-21T12:32:09.370Z,54.31
2023-05-21T12:34:43.176Z,54.43
2023-05-21T12:37:18.345Z,54.44
2023-05-21T12:39:51.124Z,54.52
2023-05-21T12:42:27.387Z,55.10
2023-05-21T12:44:59.611Z,54.55
2023-05-21T12:47:33.055Z,54.41
2023-05-21T12:50:08.537Z,54.79
2023-05-21T12:52:43.186Z,54.32
2023-05-21T12:55:15.662Z,54.59
2023-05-21T12:57:47.942Z,54.66
2023-05-21T13:00:23.680Z,54.38
2023-05-21T13:02:57.184Z,54.94
2023-05-21T13:05:29.441Z,54.68
2023-05-21T13:08:01.738Z,54.69
2023-05-21T13:10:33.947Z,54.63
2023-05-21T13:13:07.193Z,54.83
2023-05-21T13:15:40.607Z,54.78
2023-05-21T13:18:12.883Z,54.74
2023-05-21T13:20:45.231Z,54.35
2023-05-21T13:23:17.486Z,54.78
2023-05-21T13:25:49.688Z,54.49
2023-05-21T13:28:23.696Z,54.54
2023-05-21T13:30:56.398Z,54.57
2023-05-21T13:33:28.838Z,54.33
2023-05-21T13:36:01.090Z,54.59
2023-05-21T13:38:33.335Z,54.87
2023-05-21T13:41:06.615Z,54.98
2023-05-21T13:43:42.036Z,54.55
2023-05-21T13:46:14.528Z,54.75
2023-05-21T13:48:47.179Z,55.02
2023-05-21T13:51:37.058Z,54.84
2023-05-21T13:54:10.259Z,54.63
2023-05-21T13:56:43.117Z,54.57
2023-05-21T13:59:15.459Z,54.86
2023-05-21T14:01:49.871Z,54.27
2023-05-21T14:04:22.094Z,54.75
2023-05-21T14:06:54.402Z,54.77
2023-05-21T14:09:27.331Z,54.34
2023-05-21T14:11:59.632Z,54.74
2023-05-21T14:14:32.323Z,54.40
2023-05-21T14:17:06.528Z,54.15
2023-05-21T14:19:38.711Z,54.35
2023-05-21T14:22:10.920Z,54.83
2023-05-21T14:24:43.037Z,54.00
2023-05-21T14:27:16.192Z,54.64
2023-05-21T14:29:48.738Z,54.49
2023-05-21T14:32:21.110Z,54.33
2023-05-21T14:34:53.309Z,54.62
2023-05-21T14:37:25.482Z,54.67
2023-05-21T14:39:57.893Z,54.12
2023-05-21T14:42:30.798Z,54.15
2023-05-21T14:45:17.512Z,54.21
2023-05-21T14:47:53.640Z,54.14
2023-05-21T14:50:25.989Z,54.50
2023-05-21T14:52:58.590Z,53.98
2023-05-21T14:55:30.890Z,54.26
2023-05-21T14:58:03.977Z,54.16
2023-05-21T15:00:36.793Z,54.01
2023-05-21T15:03:10.641Z,54.04
2023-05-21T15:05:42.863Z,53.99
2023-05-21T15:08:15.101Z,54.13
2023-05-21T15:10:47.240Z,54.27
2023-05-21T15:13:19.546Z,54.44
2023-05-21T15:15:51.761Z,54.30
2023-05-21T15:18:24.875Z,54.51
2023-05-21T15:20:57.110Z,54.05
2023-05-21T15:23:29.324Z,54.05
2023-05-21T15:26:01.579Z,54.45
2023-05-21T15:28:33.717Z,54.19
2023-05-21T15:31:07.382Z,54.59
2023-05-21T15:33:39.439Z,54.47
2023-05-21T15:36:11.726Z,54.32
2023-05-21T15:38:45.421Z,54.56
2023-05-21T15:41:17.697Z,54.25
2023-05-21T15:43:50.634Z,54.70
2023-05-21T15:46:27.301Z,54.60
2023-05-21T15:48:59.643Z,54.66
2023-05-21T15:51:31.793Z,54.66
2023-05-21T15:54:03.993Z,54.62
2023-05-21T15:56:37.492Z,54.41
2023-05-21T15:59:09.856Z,54.35
2023-05-21T16:01:43.489Z,54.43
2023-05-21T16:04:18.205Z,54.20
2023-05-21T16:06:50.833Z,54.48
2023-05-21T16:09:23.284Z,54.41
2023-05-21T16:11:57.124Z,54.23
2023-05-21T16:14:29.682Z,54.60
2023-05-21T16:17:07.025Z,54.22
2023-05-21T16:19:40.636Z,53.96
2023-05-21T16:22:17.630Z,54.04
2023-05-21T16:24:54.743Z,54.44
2023-05-21T16:27:28.080Z,53.93
2023-05-21T16:32:57.874Z,54.02
2023-05-21T16:35:31.201Z,54.01
2023-05-21T16:38:03.402Z,54.25
2023-05-21T16:40:35.491Z,54.00
2023-05-21T16:43:37.382Z,54.19
2023-05-21T16:46:10.605Z,53.95
2023-05-21T16:48:42.902Z,53.87
2023-05-21T16:51:15.448Z,53.79
2023-05-21T16:53:47.707Z,53.88
2023-05-21T16:56:19.998Z,54.25
2023-05-21T16:58:52.184Z,54.46
2023-05-21T17:01:25.436Z,54.12
2023-05-21T17:03:58.228Z,54.17
2023-05-21T17:06:31.694Z,54.12
2023-05-21T17:09:04.495Z,54.15
2023-05-21T17:11:37.261Z,54.18
2023-05-21T17:14:11.930Z,54.48
2023-05-21T17:16:45.907Z,54.62
2023-05-21T17:19:18.330Z,54.92
2023-05-21T17:21:50.767Z,54.47
2023-05-21T17:24:25.093Z,54.47
2023-05-21T17:26:57.561Z,56.68
2023-05-21T17:29:30.136Z,56.10
2023-05-21T17:32:03.528Z,56.27
2023-05-21T17:34:37.296Z,56.64
2023-05-21T17:37:09.697Z,56.93
2023-05-21T17:39:42.204Z,56.58
2023-05-21T17:42:14.709Z,56.62
2023-05-21T17:44:47.233Z,56.95
2023-05-21T17:47:21.702Z,57.06
2023-05-21T17:49:54.106Z,56.91
2023-05-21T17:52:27.024Z,56.92
2023-05-21T17:54:59.385Z,57.13
2023-05-21T17:57:31.750Z,57.15
2023-05-21T18:00:06.817Z,57.20
2023-05-21T18:02:44.294Z,56.90
2023-05-21T18:05:19.813Z,56.66
2023-05-21T18:07:52.859Z,56.52
2023-05-21T18:10:25.718Z,57.02
2023-05-21T18:12:58.432Z,56.60
2023-05-21T18:15:31.350Z,56.51
2023-05-21T18:18:03.980Z,56.44
2023-05-21T18:20:36.852Z,56.57
2023-05-21T18:23:11.134Z,56.39
2023-05-21T18:25:43.974Z,56.24
2023-05-21T18:28:16.386Z,56.28
2023-05-21T18:30:48.798Z,56.31
2023-05-21T18:33:21.183Z,56.39
2023-05-21T18:35:54.535Z,56.03
2023-05-21T18:38:26.845Z,56.44
2023-05-21T18:40:59.905Z,56.33
2023-05-21T18:43:32.712Z,56.30
2023-05-21T18:46:05.062Z,56.45
2023-05-21T18:48:37.674Z,56.03
2023-05-21T18:51:10.107Z,56.27
2023-05-21T18:53:42.555Z,55.97
2023-05-21T18:56:15.124Z,56.24
2023-05-21T18:58:47.750Z,56.08
2023-05-21T19:01:21.447Z,55.84
2023-05-21T19:03:53.901Z,55.94
2023-05-21T19:06:27.811Z,55.89
2023-05-21T19:09:00.707Z,55.98
2023-05-21T19:11:34.501Z,56.16
2023-05-21T19:14:06.958Z,56.21
2023-05-21T19:16:39.458Z,55.88
2023-05-21T19:19:11.916Z,56.07
2023-05-21T19:21:44.416Z,55.77
2023-05-21T19:24:16.760Z,55.67
2023-05-21T19:26:49.195Z,55.69
2023-05-21T19:29:21.640Z,55.91
2023-05-21T19:31:56.258Z,55.81
2023-05-21T19:34:28.948Z,55.64
2023-05-21T19:37:02.370Z,55.83
2023-05-21T19:39:41.443Z,55.89
2023-05-21T19:42:13.729Z,55.64
2023-05-21T19:44:46.358Z,55.57
2023-05-21T19:47:19.131Z,55.44
2023-05-21T19:49:56.531Z,55.41
2023-05-21T19:52:29.510Z,55.25
2023-05-21T19:55:05.864Z,55.14
2023-05-21T19:57:41.196Z,54.93
2023-05-21T20:00:16.055Z,55.28
2023-05-21T20:02:49.949Z,55.09
2023-05-21T20:05:22.833Z,55.03
2023-05-21T20:07:56.016Z,54.91
2023-05-21T20:10:28.381Z,54.90
2023-05-21T20:13:01.123Z,54.88
2023-05-21T20:15:34.314Z,55.25
2023-05-21T20:18:06.898Z,54.83
2023-05-21T20:20:41.140Z,55.01
2023-05-21T20:23:14.104Z,55.13
2023-05-21T20:25:46.533Z,54.97
2023-05-21T20:28:21.183Z,55.22
2023-05-21T20:30:59.573Z,54.60
2023-05-21T20:33:33.169Z,54.67
2023-05-21T20:36:05.669Z,54.54
2023-05-21T20:38:38.242Z,54.98
2023-05-21T20:41:11.242Z,54.58
2023-05-21T20:43:45.483Z,54.79
2023-05-21T20:46:18.588Z,54.84
2023-05-21T20:48:51.178Z,54.69
2023-05-21T20:51:24.250Z,54.95
2023-05-21T20:53:57.319Z,54.96
2023-05-21T20:56:41.589Z,55.03
2023-05-21T20:59:15.352Z,54.85
2023-05-21T21:01:50.635Z,54.98
2023-05-21T21:04:24.621Z,54.33
2023-05-21T21:06:57.052Z,54.69
2023-05-21T21:09:31.020Z,54.70
2023-05-21T21:12:21.215Z,54.00
2023-05-21T21:14:57.736Z,54.43
2023-05-21T21:17:30.386Z,54.43
2023-05-21T21:20:06.285Z,54.41
2023-05-21T21:22:38.997Z,53.69
2023-05-21T21:25:11.616Z,54.16
2023-05-21T21:27:44.209Z,53.69
2023-05-21T21:30:16.720Z,53.28
2023-05-21T21:32:49.755Z,53.60
2023-05-21T21:35:22.289Z,53.47
2023-05-21T21:37:54.661Z,53.39
2023-05-21T21:40:27.752Z,53.44
2023-05-21T21:43:00.399Z,53.10
2023-05-21T21:45:32.851Z,53.50
2023-05-21T21:48:05.440Z,53.05
2023-05-21T21:50:38.277Z,53.54
2023-05-21T21:53:12.690Z,53.62
2023-05-21T21:55:45.005Z,53.12
2023-05-21T21:58:17.442Z,53.31
2023-05-21T22:00:50.028Z,53.77
2023-05-21T22:03:24.865Z,53.16
2023-05-21T22:05:57.351Z,53.34
2023-05-21T22:08:32.191Z,53.28
2023-05-21T22:11:04.863Z,53.39
2023-05-21T22:13:38.350Z,53.50
2023-05-21T22:16:11.926Z,53.77
2023-05-21T22:18:45.512Z,53.48
2023-05-21T22:21:18.528Z,53.64
2023-05-21T22:23:51.220Z,53.48
2023-05-21T22:26:25.125Z,53.61
2023-05-21T22:28:59.252Z,54.00
2023-05-21T22:31:32.173Z,54.14
2023-05-21T22:34:04.736Z,54.16
2023-05-21T22:36:38.998Z,54.62
2023-05-21T22:39:12.408Z,54.46
2023-05-21T22:41:47.636Z,54.81
2023-05-21T22:44:20.420Z,55.14
2023-05-21T22:46:53.692Z,55.03
2023-05-21T22:49:27.325Z,54.81
2023-05-21T22:52:05.264Z,54.75
2023-05-21T22:54:37.896Z,54.53
2023-05-21T22:57:10.608Z,54.51
2023-05-21T22:59:44.922Z,54.80
2023-05-21T23:02:18.063Z,55.23
2023-05-21T23:04:50.667Z,55.29
2023-05-21T23:07:23.716Z,54.96
2023-05-21T23:09:56.123Z,55.11
2023-05-21T23:12:28.654Z,55.64
2023-05-21T23:15:05.022Z,54.94
2023-05-21T23:17:38.014Z,55.39
2023-05-21T23:20:10.667Z,55.21
2023-05-21T23:22:44.094Z,55.04
2023-05-21T23:25:18.857Z,55.14
2023-05-21T23:27:51.554Z,55.55
2023-05-21T23:30:24.018Z,55.53
2023-05-21T23:32:56.494Z,55.28
2023-05-21T23:48:25.694Z,55.25
2023-05-21T23:50:58.108Z,55.60
2023-05-21T23:53:31.744Z,55.85
2023-05-21T23:56:04.276Z,55.92
